Time;durP1;ratioP1;P1;durP2;ratioP2;P2;SDS_P1;SDS_P2;PMS_P1;PMS_P2;Temp;Humidity;BMP_temperature;BMP_pressure;BME280_temperature;BME280_humidity;BME280_pressure;Samples;Min_cycle;Max_cycle;Signal;HPM_P1;HPM_P2
2023/04/11 00:00:53;;;;;;;5.28;1.08;;;9.50;99.90;;;;;;5041468;28;20033;-79
2023/04/11 00:03:21;;;;;;;10.40;1.38;;;9.40;99.90;;;;;;5043059;28;20056;-78
2023/04/11 00:05:47;;;;;;;7.43;0.90;;;9.30;99.90;;;;;;5041223;28;20485;-79
2023/04/11 00:08:13;;;;;;;6.75;1.13;;;9.20;99.90;;;;;;5009338;28;20319;-79
2023/04/11 00:10:38;;;;;;;7.70;1.77;;;9.10;99.90;;;;;;5041293;28;20045;-79
2023/04/11 00:13:06;;;;;;;5.30;0.98;;;8.90;99.90;;;;;;5025105;28;20045;-78
2023/04/11 00:15:32;;;;;;;3.72;0.77;;;8.80;99.90;;;;;;5009546;28;20045;-78
2023/04/11 00:17:57;;;;;;;4.88;0.70;;;8.80;99.90;;;;;;5041870;28;20049;-78
2023/04/11 00:20:23;;;;;;;4.15;1.23;;;9.30;99.90;;;;;;5042872;28;20098;-78
2023/04/11 00:22:52;;;;;;;7.15;0.88;;;8.70;99.90;;;;;;5024243;28;20484;-78
2023/04/11 00:25:19;;;;;;;3.78;1.30;;;8.60;99.90;;;;;;5025915;28;20410;-78
2023/04/11 00:27:44;;;;;;;16.27;1.42;;;8.60;99.90;;;;;;5041570;28;20051;-78
2023/04/11 00:30:10;;;;;;;4.57;1.35;;;8.90;99.90;;;;;;5042174;28;20053;-78
2023/04/11 00:32:36;;;;;;;9.77;1.50;;;8.60;99.90;;;;;;5041977;28;20033;-78
2023/04/11 00:35:02;;;;;;;8.13;1.45;;;8.60;99.90;;;;;;5041430;28;20048;-78
2023/04/11 00:37:27;;;;;;;14.40;1.30;;;8.50;99.90;;;;;;5028887;28;20485;-78
2023/04/11 00:39:54;;;;;;;7.25;1.52;;;8.50;99.90;;;;;;5044739;28;20052;-78
2023/04/11 00:42:20;;;;;;;5.22;1.75;;;8.90;99.90;;;;;;5028728;28;20059;-78
2023/04/11 00:44:46;;;;;;;13.20;1.52;;;8.40;99.90;;;;;;5044649;28;20057;-78
2023/04/11 00:47:12;;;;;;;18.73;2.22;;;8.40;99.90;;;;;;5045111;28;20049;-78
2023/04/11 00:49:39;;;;;;;17.27;2.25;;;8.30;99.90;;;;;;5062311;28;20395;-78
2023/04/11 00:52:07;;;;;;;15.15;1.98;;;8.30;99.90;;;;;;5045183;28;20048;-78
2023/04/11 00:54:33;;;;;;;14.32;2.97;;;8.20;99.90;;;;;;5045800;28;20049;-78
2023/04/11 00:57:03;;;;;;;10.95;2.60;;;8.70;99.90;;;;;;5011115;28;20048;-78
2023/04/11 00:59:31;;;;;;;9.93;2.13;;;8.20;99.90;;;;;;5028530;28;20040;-78
2023/04/11 01:01:58;;;;;;;9.27;1.45;;;8.80;99.90;;;;;;5044119;28;20056;-78
2023/04/11 01:04:25;;;;;;;19.88;3.00;;;8.20;99.90;;;;;;5044865;28;20045;-78
2023/04/11 01:06:55;;;;;;;17.33;2.30;;;8.10;99.90;;;;;;5045072;28;20523;-78
2023/04/11 01:09:23;;;;;;;14.52;2.30;;;8.10;99.90;;;;;;5045418;28;20053;-78
2023/04/11 01:11:50;;;;;;;13.50;2.00;;;9.30;99.90;;;;;;5045510;28;20049;-78
2023/04/11 01:14:17;;;;;;;14.20;2.75;;;8.80;99.90;;;;;;5043841;28;20048;-78
2023/04/11 01:16:45;;;;;;;17.70;2.58;;;8.50;99.90;;;;;;5044904;28;20047;-78
2023/04/11 01:19:17;;;;;;;17.35;2.95;;;7.90;99.90;;;;;;5043958;28;20056;-78
2023/04/11 01:21:43;;;;;;;13.27;2.55;;;7.90;99.90;;;;;;5027559;28;20044;-78
2023/04/11 01:24:10;;;;;;;13.32;2.17;;;7.90;99.90;;;;;;5046378;28;20049;-78
2023/04/11 01:26:36;;;;;;;20.13;2.80;;;7.40;99.90;;;;;;5045392;28;20045;-78
2023/04/11 01:29:02;;;;;;;18.20;2.53;;;7.80;99.90;;;;;;5045045;28;20044;-78
2023/04/11 01:31:28;;;;;;;21.20;2.65;;;7.80;99.90;;;;;;5044055;28;20478;-78
2023/04/11 01:33:54;;;;;;;17.67;2.42;;;7.90;99.90;;;;;;5044627;28;20048;-78
2023/04/11 01:36:20;;;;;;;14.85;2.35;;;7.70;99.90;;;;;;5027337;28;20043;-78
2023/04/11 01:38:48;;;;;;;18.10;2.38;;;7.80;99.90;;;;;;5043927;28;20407;-78
2023/04/11 01:41:16;;;;;;;15.43;2.08;;;8.70;99.90;;;;;;5044342;28;20120;-78
2023/04/11 01:43:43;;;;;;;14.90;3.65;;;7.70;99.90;;;;;;5043796;28;20399;-78
2023/04/11 01:46:10;;;;;;;17.52;1.90;;;7.70;99.90;;;;;;5044655;28;20053;-78
2023/04/11 01:48:39;;;;;;;22.30;3.28;;;7.70;99.90;;;;;;5042637;28;20052;-78
2023/04/11 01:51:06;;;;;;;14.45;2.33;;;8.30;99.90;;;;;;5028175;28;20134;-78
2023/04/11 01:53:32;;;;;;;11.18;1.58;;;7.70;99.90;;;;;;5010478;28;20049;-78
2023/04/11 01:55:57;;;;;;;18.98;1.88;;;9.20;99.90;;;;;;5045375;28;20067;-78
2023/04/11 01:58:23;;;;;;;9.07;1.30;;;8.80;99.90;;;;;;5027934;28;20114;-78
2023/04/11 02:00:49;;;;;;;8.45;1.25;;;7.80;99.90;;;;;;5043517;28;20048;-78
2023/04/11 02:03:16;;;;;;;14.13;2.85;;;8.20;99.90;;;;;;5045565;28;20114;-78
2023/04/11 02:05:42;;;;;;;8.13;1.00;;;7.80;99.90;;;;;;5044622;28;20068;-78
2023/04/11 02:08:08;;;;;;;5.88;0.90;;;7.80;99.90;;;;;;5043800;28;20056;-78
2023/04/11 02:10:33;;;;;;;4.82;0.75;;;7.80;99.90;;;;;;5043263;28;20041;-78
2023/04/11 02:12:59;;;;;;;6.30;0.95;;;8.20;99.90;;;;;;5026432;28;20423;-78
2023/04/11 02:15:25;;;;;;;11.65;1.15;;;7.90;99.90;;;;;;5043572;28;20045;-78
2023/04/11 02:17:52;;;;;;;7.45;1.27;;;7.80;99.90;;;;;;5042719;28;20182;-78
2023/04/11 02:20:20;;;;;;;5.68;0.57;;;7.90;99.90;;;;;;5043819;28;20125;-78
2023/04/11 02:22:46;;;;;;;2.28;0.57;;;7.80;99.90;;;;;;5043215;28;20071;-78
2023/04/11 02:25:12;;;;;;;4.03;0.65;;;9.10;99.90;;;;;;5043295;28;20048;-78
2023/04/11 02:27:38;;;;;;;1.63;0.57;;;7.80;99.90;;;;;;5026277;28;20052;-79
2023/04/11 02:30:07;;;;;;;3.03;0.50;;;7.80;99.90;;;;;;5043564;28;20476;-78
2023/04/11 02:32:36;;;;;;;6.05;0.60;;;7.80;99.90;;;;;;5043683;28;20041;-79
2023/04/11 02:35:03;;;;;;;3.58;0.38;;;9.30;99.90;;;;;;5043035;28;20770;-79
2023/04/11 02:37:30;;;;;;;4.05;0.63;;;7.80;99.90;;;;;;5026823;28;20288;-79
2023/04/11 02:39:56;;;;;;;5.18;0.60;;;7.80;99.90;;;;;;5026166;28;20060;-79
2023/04/11 02:42:22;;;;;;;3.50;0.60;;;8.10;99.90;;;;;;5043562;28;20041;-79
2023/04/11 02:44:48;;;;;;;3.63;0.73;;;7.80;99.90;;;;;;5043079;28;20523;-79
2023/04/11 02:47:13;;;;;;;2.67;0.63;;;7.80;99.90;;;;;;5044043;28;20531;-79
2023/04/11 02:49:42;;;;;;;5.60;0.73;;;7.80;99.90;;;;;;5043047;28;20033;-79
2023/04/11 02:52:08;;;;;;;3.95;0.40;;;7.90;99.90;;;;;;5026206;28;20049;-79
2023/04/11 02:54:34;;;;;;;1.30;0.30;;;8.30;99.90;;;;;;5010609;28;20047;-79
2023/04/11 02:57:00;;;;;;;3.25;0.50;;;8.90;99.90;;;;;;5042149;28;20041;-79
2023/04/11 02:59:26;;;;;;;8.40;1.27;;;7.80;99.90;;;;;;5026202;28;20044;-79
2023/04/11 03:01:59;;;;;;;2.25;0.50;;;7.80;99.90;;;;;;5042224;28;20045;-80
2023/04/11 03:04:26;;;;;;;6.95;0.77;;;8.40;99.90;;;;;;5042333;28;20106;-79
2023/04/11 03:06:52;;;;;;;5.07;0.50;;;7.80;99.90;;;;;;5026568;28;20053;-80
2023/04/11 03:09:18;;;;;;;2.22;0.93;;;7.80;99.90;;;;;;5042234;28;20116;-80
2023/04/11 03:11:43;;;;;;;6.70;1.50;;;7.80;99.90;;;;;;5026620;28;20076;-80
2023/04/11 03:14:09;;;;;;;2.88;0.95;;;7.80;99.90;;;;;;5042600;28;20103;-80
2023/04/11 03:16:35;;;;;;;7.97;1.17;;;8.20;99.90;;;;;;5026221;28;20041;-80
2023/04/11 03:19:01;;;;;;;2.95;0.80;;;8.60;99.90;;;;;;5025938;28;20051;-79
2023/04/11 03:21:26;;;;;;;5.85;0.90;;;7.80;99.90;;;;;;5025694;28;20464;-79
2023/04/11 03:23:52;;;;;;;8.90;1.10;;;7.80;99.90;;;;;;5026641;28;20068;-79
2023/04/11 03:26:18;;;;;;;5.45;0.50;;;8.20;99.90;;;;;;5042636;28;20076;-80
2023/04/11 03:28:44;;;;;;;10.18;0.80;;;8.40;99.90;;;;;;5042675;28;20508;-79
2023/04/11 03:31:11;;;;;;;6.63;1.65;;;7.80;99.90;;;;;;5042112;28;20087;-79
2023/04/11 03:33:37;;;;;;;5.03;1.15;;;7.80;99.90;;;;;;5026020;28;20049;-79
2023/04/11 03:36:04;;;;;;;6.63;1.30;;;8.00;99.90;;;;;;5041817;28;20086;-79
2023/04/11 03:38:30;;;;;;;9.43;1.13;;;7.80;99.90;;;;;;5042205;28;20092;-79
2023/04/11 03:40:56;;;;;;;7.28;2.20;;;7.70;99.90;;;;;;5042556;28;20526;-79
2023/04/11 03:43:21;;;;;;;11.27;1.15;;;7.80;99.90;;;;;;5041863;28;20053;-79
2023/04/11 03:45:47;;;;;;;10.13;2.72;;;8.40;99.90;;;;;;5042550;28;20057;-79
2023/04/11 03:48:13;;;;;;;7.40;1.17;;;7.70;99.90;;;;;;5042308;28;20098;-78
2023/04/11 03:50:39;;;;;;;9.10;1.25;;;8.00;99.90;;;;;;5026074;28;20392;-79
2023/04/11 03:53:05;;;;;;;7.80;0.90;;;9.10;99.90;;;;;;5025508;28;20044;-78
2023/04/11 03:55:31;;;;;;;4.20;1.05;;;8.50;99.90;;;;;;5042062;28;20052;-79
2023/04/11 03:57:56;;;;;;;4.13;1.40;;;8.00;99.90;;;;;;5042130;28;20063;-79
2023/04/11 04:00:22;;;;;;;7.95;1.00;;;8.50;99.90;;;;;;5025084;28;20045;-78
2023/04/11 04:02:48;;;;;;;9.65;1.42;;;7.80;99.90;;;;;;5042553;28;20045;-79
2023/04/11 04:05:13;;;;;;;8.40;1.67;;;7.80;99.90;;;;;;5041591;28;20045;-78
2023/04/11 04:07:39;;;;;;;4.30;1.52;;;8.20;99.90;;;;;;5042536;28;20049;-79
2023/04/11 04:10:05;;;;;;;9.35;1.65;;;8.60;99.90;;;;;;5025147;28;20329;-78
2023/04/11 04:12:31;;;;;;;12.93;2.05;;;7.90;99.90;;;;;;5045677;28;20429;-78
2023/04/11 04:14:56;;;;;;;9.13;1.70;;;8.70;99.90;;;;;;5045909;28;20089;-78
2023/04/11 04:17:22;;;;;;;16.48;2.00;;;8.40;99.90;;;;;;5045419;28;20076;-78
2023/04/11 04:19:48;;;;;;;16.90;2.30;;;8.10;99.90;;;;;;5029509;28;20053;-78
2023/04/11 04:22:16;;;;;;;12.20;1.58;;;8.30;99.90;;;;;;5045376;28;20047;-78
2023/04/11 04:24:44;;;;;;;12.40;2.30;;;9.30;99.90;;;;;;5029216;28;20041;-78
2023/04/11 04:27:12;;;;;;;12.82;1.50;;;8.00;99.90;;;;;;5046106;28;20383;-78
2023/04/11 04:29:45;;;;;;;12.80;1.80;;;8.00;99.90;;;;;;5046038;28;20538;-78
2023/04/11 04:32:11;;;;;;;8.73;1.77;;;8.50;99.90;;;;;;5046202;28;20045;-78
2023/04/11 04:34:54;;;;;;;12.30;1.80;;;8.20;99.90;;;;;;5045478;28;20132;-78
2023/04/11 04:37:21;;;;;;;9.18;2.83;;;8.00;99.90;;;;;;5046039;28;20519;-78
2023/04/11 04:40:06;;;;;;;11.52;1.60;;;8.10;99.90;;;;;;5028316;28;20453;-78
2023/04/11 04:42:33;;;;;;;12.43;2.08;;;8.00;99.90;;;;;;5045353;28;20132;-78
2023/04/11 04:44:59;;;;;;;12.80;1.83;;;8.00;99.90;;;;;;5062202;28;20061;-79
2023/04/11 04:47:32;;;;;;;9.52;1.70;;;7.90;99.90;;;;;;5028264;28;20128;-78
2023/04/11 04:49:58;;;;;;;18.10;3.50;;;8.60;99.90;;;;;;5029011;28;20091;-78
2023/04/11 04:52:26;;;;;;;13.93;2.05;;;8.60;99.90;;;;;;5044718;28;20151;-78
2023/04/11 04:54:52;;;;;;;12.90;3.70;;;8.30;99.90;;;;;;5028968;28;20060;-78
2023/04/11 04:57:18;;;;;;;15.48;2.38;;;8.50;99.90;;;;;;5028244;28;20413;-78
2023/04/11 04:59:44;;;;;;;9.48;2.05;;;7.90;99.90;;;;;;5044930;28;20127;-78
2023/04/11 05:02:10;;;;;;;15.35;2.35;;;7.90;99.90;;;;;;5044914;28;20048;-78
2023/04/11 05:04:36;;;;;;;14.82;2.50;;;9.00;99.90;;;;;;5027986;28;20124;-78
2023/04/11 05:07:02;;;;;;;6.28;1.83;;;7.90;99.90;;;;;;5028546;28;20049;-78
2023/04/11 05:09:28;;;;;;;10.25;1.50;;;8.50;99.90;;;;;;5044794;28;20092;-78
2023/04/11 05:11:53;;;;;;;11.57;1.90;;;8.70;99.90;;;;;;5044982;28;20493;-79
2023/04/11 05:14:19;;;;;;;12.18;1.98;;;8.00;99.90;;;;;;5044209;28;20045;-79
2023/04/11 05:16:45;;;;;;;16.70;2.85;;;8.00;99.90;;;;;;5028149;28;20132;-79
2023/04/11 05:19:11;;;;;;;11.95;1.70;;;9.10;99.90;;;;;;5044932;28;20080;-79
2023/04/11 05:21:37;;;;;;;12.13;2.05;;;8.80;99.90;;;;;;5043812;28;20124;-80
2023/04/11 05:24:03;;;;;;;7.75;1.45;;;7.80;99.90;;;;;;5044771;28;20504;-80
2023/04/11 05:26:30;;;;;;;2.63;0.75;;;7.80;99.90;;;;;;5044552;28;20041;-81
2023/04/11 05:28:56;;;;;;;4.03;0.70;;;8.20;99.90;;;;;;5028472;28;20151;-81
2023/04/11 05:31:24;;;;;;;5.15;0.77;;;6.90;99.90;;;;;;5043871;28;20053;-80
2023/04/11 05:33:50;;;;;;;4.43;0.85;;;7.80;99.90;;;;;;5045080;28;20161;-80
2023/04/11 05:36:16;;;;;;;8.48;1.27;;;7.70;99.90;;;;;;5027710;28;20043;-81
2023/04/11 05:38:43;;;;;;;4.70;1.20;;;8.50;99.90;;;;;;5027077;28;20411;-80
2023/04/11 05:41:09;;;;;;;10.20;1.55;;;7.80;99.90;;;;;;5027922;28;20566;-81
2023/04/11 05:43:36;;;;;;;15.35;3.00;;;8.40;99.90;;;;;;5027602;28;20041;-80
2023/04/11 05:46:02;;;;;;;5.30;1.25;;;7.30;99.90;;;;;;5027776;28;20052;-80
2023/04/11 05:48:28;;;;;;;10.25;2.72;;;7.30;99.90;;;;;;5027181;28;20056;-79
2023/04/11 05:50:55;;;;;;;11.52;2.15;;;8.30;99.90;;;;;;5044047;28;20045;-80
2023/04/11 05:53:21;;;;;;;17.48;2.45;;;7.40;99.90;;;;;;5044664;28;20468;-79
2023/04/11 05:55:46;;;;;;;12.60;2.25;;;7.70;99.90;;;;;;5043668;28;20121;-79
2023/04/11 05:58:12;;;;;;;9.38;1.77;;;8.10;99.90;;;;;;5027607;28;20048;-79
2023/04/11 06:00:38;;;;;;;14.73;2.20;;;8.80;99.90;;;;;;5043514;28;20037;-79
2023/04/11 06:03:06;;;;;;;15.85;2.60;;;7.60;99.90;;;;;;5043901;28;20131;-86
2023/04/11 06:05:33;;;;;;;10.15;2.20;;;7.60;99.90;;;;;;5043251;28;20041;-82
2023/04/11 06:08:00;;;;;;;20.75;2.17;;;7.70;99.90;;;;;;5027837;28;20453;-81
2023/04/11 06:10:27;;;;;;;10.10;2.13;;;7.70;99.90;;;;;;5043365;28;20041;-80
2023/04/11 06:12:53;;;;;;;15.68;2.10;;;9.30;99.90;;;;;;5010157;28;20082;-79
2023/04/11 06:15:20;;;;;;;9.27;1.88;;;7.90;99.90;;;;;;5043876;28;20076;-80
2023/04/11 06:17:46;;;;;;;9.38;1.60;;;7.90;99.90;;;;;;5043316;28;20048;-80
2023/04/11 06:20:13;;;;;;;9.68;2.10;;;7.90;99.90;;;;;;5044187;28;20041;-80
2023/04/11 06:22:39;;;;;;;14.38;2.78;;;8.00;99.90;;;;;;5043277;28;20048;-79
2023/04/11 06:25:06;;;;;;;12.27;2.17;;;8.00;99.90;;;;;;5027149;28;20399;-79
2023/04/11 06:27:32;;;;;;;13.77;2.13;;;8.00;99.90;;;;;;5043141;28;20057;-79
2023/04/11 06:29:57;;;;;;;16.02;2.50;;;8.50;99.90;;;;;;5042760;28;20043;-79
2023/04/11 06:32:26;;;;;;;12.93;2.72;;;8.50;99.90;;;;;;5043802;28;20135;-79
2023/04/11 06:34:52;;;;;;;16.52;2.03;;;9.20;99.90;;;;;;5042536;28;20506;-78
2023/04/11 06:37:19;;;;;;;18.88;3.05;;;9.10;99.90;;;;;;5027199;28;20129;-78
2023/04/11 06:39:45;;;;;;;16.33;2.08;;;8.30;99.90;;;;;;5042629;28;20079;-78
2023/04/11 06:42:10;;;;;;;19.35;3.30;;;8.70;99.90;;;;;;5042940;28;20057;-78
2023/04/11 06:44:36;;;;;;;15.43;2.72;;;8.20;99.90;;;;;;5026317;28;20041;-81
2023/04/11 06:47:02;;;;;;;19.65;2.92;;;8.20;99.90;;;;;;5025990;28;20041;-82
2023/04/11 06:49:28;;;;;;;14.57;2.03;;;8.30;99.90;;;;;;5043112;28;20037;-82
2023/04/11 06:51:54;;;;;;;11.95;2.40;;;9.40;99.90;;;;;;5025733;28;20045;-84
2023/04/11 06:54:20;;;;;;;20.45;2.25;;;8.20;99.90;;;;;;5026920;28;20408;-82
2023/04/11 06:56:46;;;;;;;11.38;1.75;;;8.10;99.90;;;;;;5025818;28;20045;-79
2023/04/11 06:59:12;;;;;;;23.80;3.30;;;9.00;99.90;;;;;;5042810;28;20055;-79
2023/04/11 07:01:38;;;;;;;12.18;1.92;;;8.80;99.90;;;;;;5026308;28;20040;-79
2023/04/11 07:04:05;;;;;;;24.60;3.88;;;8.10;99.90;;;;;;5025766;28;20049;-79
2023/04/11 07:06:34;;;;;;;23.38;2.72;;;8.20;99.90;;;;;;5026496;28;20515;-79
2023/04/11 07:09:00;;;;;;;14.38;3.58;;;8.10;99.90;;;;;;5025957;28;20044;-79
2023/04/11 07:11:26;;;;;;;8.73;1.98;;;8.20;99.90;;;;;;5042750;28;20041;-78
2023/04/11 07:13:55;;;;;;;29.05;5.57;;;8.30;99.90;;;;;;5042189;28;20049;-79
2023/04/11 07:16:21;;;;;;;10.77;1.90;;;8.40;99.90;;;;;;5042736;28;20087;-79
2023/04/11 07:18:47;;;;;;;16.33;2.00;;;8.50;99.90;;;;;;5025774;28;20049;-79
2023/04/11 07:21:13;;;;;;;17.73;3.13;;;8.50;99.90;;;;;;5042855;28;20060;-78
2023/04/11 07:23:40;;;;;;;15.75;3.42;;;9.10;99.90;;;;;;5026021;28;20049;-78
2023/04/11 07:26:09;;;;;;;19.02;2.35;;;8.70;99.90;;;;;;5042273;28;20079;-79
2023/04/11 07:28:39;;;;;;;18.67;1.98;;;8.80;99.90;;;;;;5025958;28;20148;-79
2023/04/11 07:31:08;;;;;;;19.60;2.05;;;8.90;99.90;;;;;;5025300;28;20055;-78
2023/04/11 07:33:36;;;;;;;20.00;2.05;;;9.20;99.90;;;;;;5042705;28;20049;-79
2023/04/11 07:36:02;;;;;;;8.60;1.70;;;9.00;99.90;;;;;;5025785;28;20048;-78
2023/04/11 07:38:28;;;;;;;12.68;1.70;;;9.10;99.90;;;;;;5041764;28;20044;-79
2023/04/11 07:40:59;;;;;;;6.95;1.50;;;9.20;99.90;;;;;;5044339;28;20048;-79
2023/04/11 07:43:26;;;;;;;18.85;2.65;;;9.30;99.90;;;;;;5041728;28;20056;-80
2023/04/11 07:45:53;;;;;;;15.38;2.53;;;9.40;99.90;;;;;;5043765;28;20048;-80
2023/04/11 07:48:20;;;;;;;17.73;2.53;;;9.60;99.90;;;;;;5046291;28;20049;-80
2023/04/11 07:50:46;;;;;;;13.02;2.28;;;9.90;99.90;;;;;;5046881;28;20084;-78
2023/04/11 07:53:12;;;;;;;19.30;3.10;;;9.80;99.90;;;;;;5046522;28;20084;-78
2023/04/11 07:55:38;;;;;;;9.82;1.88;;;9.70;99.90;;;;;;5045954;28;20083;-78
2023/04/11 07:58:04;;;;;;;8.45;1.90;;;10.40;99.90;;;;;;5047831;28;20114;-78
2023/04/11 08:00:32;;;;;;;8.40;1.33;;;9.80;99.90;;;;;;5045597;28;20041;-78
2023/04/11 08:03:01;;;;;;;4.90;1.27;;;9.60;99.90;;;;;;5046594;28;20085;-77
2023/04/11 08:05:28;;;;;;;14.82;2.15;;;9.60;99.90;;;;;;5046194;28;20041;-78
2023/04/11 08:07:54;;;;;;;8.18;1.83;;;9.40;99.90;;;;;;5046342;28;20041;-78
2023/04/11 08:10:19;;;;;;;8.82;1.70;;;9.40;99.90;;;;;;5045905;28;20051;-78
2023/04/11 08:12:45;;;;;;;11.77;1.58;;;10.20;99.90;;;;;;5028999;28;20132;-77
2023/04/11 08:15:11;;;;;;;5.30;1.33;;;9.40;99.90;;;;;;5046502;28;20049;-78
2023/04/11 08:17:37;;;;;;;12.10;1.60;;;9.40;99.90;;;;;;5045408;28;20478;-78
2023/04/11 08:20:10;;;;;;;13.68;1.70;;;9.60;99.90;;;;;;5029368;28;20044;-78
2023/04/11 08:22:38;;;;;;;15.45;2.15;;;9.80;99.90;;;;;;5045834;28;20429;-78
2023/04/11 08:25:08;;;;;;;15.20;1.58;;;10.00;99.90;;;;;;5045663;28;20044;-78
2023/04/11 08:27:34;;;;;;;10.32;2.45;;;10.10;99.90;;;;;;5013229;28;20511;-78
2023/04/11 08:30:03;;;;;;;18.65;3.20;;;10.10;99.90;;;;;;5028659;28;20048;-78
2023/04/11 08:32:28;;;;;;;16.63;2.50;;;10.00;99.90;;;;;;5046404;28;20084;-78
2023/04/11 08:34:54;;;;;;;9.98;1.67;;;10.00;99.90;;;;;;5044860;28;20099;-78
2023/04/11 08:37:19;;;;;;;5.90;1.40;;;10.00;99.90;;;;;;5046116;28;20055;-78
2023/04/11 08:39:45;;;;;;;16.60;2.03;;;10.00;99.90;;;;;;5044960;28;20502;-77
2023/04/11 08:42:24;;;;;;;14.98;2.00;;;10.20;99.90;;;;;;5045199;28;20129;-78
2023/04/11 08:44:59;;;;;;;17.83;2.88;;;10.00;99.90;;;;;;5045799;28;20037;-78
2023/04/11 08:47:25;;;;;;;17.08;2.17;;;10.20;99.90;;;;;;5045172;28;20055;-78
2023/04/11 08:49:52;;;;;;;9.68;2.35;;;10.40;99.90;;;;;;5045967;28;20044;-78
2023/04/11 08:52:18;;;;;;;11.20;1.75;;;10.50;99.90;;;;;;5028213;28;20048;-77
2023/04/11 08:54:47;;;;;;;12.75;2.30;;;10.70;99.90;;;;;;5028535;28;20037;-78
2023/04/11 08:57:36;;;;;;;12.18;1.65;;;10.80;99.90;;;;;;5044365;28;20036;-78
2023/04/11 09:00:13;;;;;;;11.23;1.88;;;10.90;99.90;;;;;;5061209;28;20091;-78
2023/04/11 09:03:02;;;;;;;6.55;1.42;;;11.00;99.90;;;;;;5029875;28;20120;-78
2023/04/11 09:05:28;;;;;;;14.68;2.13;;;11.00;99.90;;;;;;5044822;28;20048;-78
2023/04/11 09:07:55;;;;;;;10.13;1.50;;;10.80;99.90;;;;;;5028890;28;20048;-78
2023/04/11 09:10:21;;;;;;;10.43;1.42;;;10.60;99.90;;;;;;5029056;28;20396;-77
2023/04/11 09:12:47;;;;;;;14.65;1.63;;;10.50;99.90;;;;;;5027992;28;20052;-78
2023/04/11 09:15:42;;;;;;;13.60;1.45;;;10.60;99.90;;;;;;5045077;28;20052;-78
2023/04/11 09:18:07;;;;;;;10.15;1.00;;;10.90;99.90;;;;;;5073183;28;20059;-78
2023/04/11 09:20:33;;;;;;;10.95;1.45;;;11.20;99.90;;;;;;5028101;28;20045;-80
2023/04/11 09:22:59;;;;;;;5.22;0.63;;;11.30;99.90;;;;;;5044433;28;20090;-80
2023/04/11 09:25:24;;;;;;;4.70;0.65;;;10.80;99.90;;;;;;5044221;28;20052;-79
2023/04/11 09:28:07;;;;;;;4.93;0.90;;;10.20;99.90;;;;;;5028869;28;20140;-79
2023/04/11 09:30:33;;;;;;;6.65;1.05;;;9.70;99.90;;;;;;5043997;28;20037;-79
2023/04/11 09:33:28;;;;;;;9.88;1.08;;;10.10;99.90;;;;;;5044548;28;21014;-79
2023/04/11 09:35:55;;;;;;;7.03;1.40;;;9.30;99.90;;;;;;5044269;28;20055;-79
2023/04/11 09:38:32;;;;;;;9.27;1.83;;;9.20;99.90;;;;;;5043778;28;20104;-79
2023/04/11 09:41:00;;;;;;;27.27;2.28;;;9.00;99.90;;;;;;5044810;28;20397;-79
2023/04/11 09:43:26;;;;;;;15.27;1.58;;;9.30;99.90;;;;;;5043587;28;20056;-82
2023/04/11 09:46:08;;;;;;;3.83;0.77;;;9.10;99.90;;;;;;5044972;28;20102;-79
2023/04/11 09:48:37;;;;;;;12.05;1.65;;;9.50;99.90;;;;;;5044371;28;20105;-80
2023/04/11 09:51:07;;;;;;;12.82;2.22;;;9.60;99.90;;;;;;5043819;28;20797;-80
2023/04/11 09:53:35;;;;;;;7.30;0.88;;;10.00;99.90;;;;;;5027882;28;20055;-78
2023/04/11 09:56:02;;;;;;;9.50;1.65;;;10.50;99.90;;;;;;5026742;28;20047;-79
2023/04/11 09:58:32;;;;;;;9.38;1.35;;;10.80;99.90;;;;;;5043839;28;20480;-78
2023/04/11 10:01:03;;;;;;;12.05;1.90;;;11.00;99.90;;;;;;5026875;28;20440;-78
2023/04/11 10:03:33;;;;;;;9.30;1.45;;;10.90;99.90;;;;;;5027609;28;20400;-79
2023/04/11 10:06:02;;;;;;;6.50;1.15;;;10.60;99.90;;;;;;5045164;28;20052;-79
2023/04/11 10:08:31;;;;;;;4.53;0.80;;;10.20;99.90;;;;;;5042888;28;20037;-80
2023/04/11 10:10:59;;;;;;;4.90;0.40;;;10.20;99.90;;;;;;5044197;28;20041;-80
2023/04/11 10:13:34;;;;;;;5.07;1.13;;;9.70;99.90;;;;;;5042940;28;20095;-79
2023/04/11 10:16:12;;;;;;;3.03;0.45;;;9.20;99.90;;;;;;5043986;28;20369;-80
2023/04/11 10:18:53;;;;;;;5.85;0.98;;;9.00;99.90;;;;;;5027078;28;20507;-78
2023/04/11 10:21:28;;;;;;;6.75;1.67;;;9.00;99.90;;;;;;5042921;28;20052;-77
2023/04/11 10:24:20;;;;;;;7.82;0.52;;;9.20;99.90;;;;;;5043916;28;20056;-78
2023/04/11 10:26:53;;;;;;;9.43;0.88;;;9.50;99.90;;;;;;5043528;28;20045;-79
2023/04/11 10:29:47;;;;;;;7.85;1.27;;;9.80;99.90;;;;;;5026851;28;20045;-77
2023/04/11 10:32:16;;;;;;;8.88;1.08;;;10.20;99.90;;;;;;5042985;28;20389;-77
2023/04/11 10:34:53;;;;;;;8.85;1.77;;;10.60;99.90;;;;;;5026102;28;20099;-77
2023/04/11 10:37:33;;;;;;;5.38;0.95;;;10.80;99.90;;;;;;5026481;28;20049;-77
2023/04/11 10:40:11;;;;;;;9.52;1.45;;;10.60;99.90;;;;;;5042808;28;20037;-77
2023/04/11 10:42:43;;;;;;;6.30;0.82;;;10.40;99.90;;;;;;5042509;28;20057;-77
2023/04/11 10:45:26;;;;;;;7.70;1.35;;;10.00;99.90;;;;;;5043266;28;20219;-77
2023/04/11 10:47:55;;;;;;;7.65;1.20;;;9.60;99.90;;;;;;5042645;28;20180;-76
2023/04/11 10:50:29;;;;;;;6.85;2.17;;;9.30;99.90;;;;;;5043148;28;20453;-77
2023/04/11 10:52:57;;;;;;;4.63;0.70;;;9.50;99.90;;;;;;5042688;28;20488;-77
2023/04/11 10:55:25;;;;;;;6.30;0.98;;;9.20;99.90;;;;;;5042681;28;20055;-76
2023/04/11 10:58:15;;;;;;;8.30;1.15;;;8.80;99.90;;;;;;5042986;28;20826;-77
2023/04/11 11:00:47;;;;;;;7.30;1.35;;;8.80;99.90;;;;;;5025749;28;20052;-77
2023/04/11 11:03:17;;;;;;;9.40;1.23;;;8.90;99.90;;;;;;5043521;28;20052;-77
2023/04/11 11:05:43;;;;;;;7.20;1.45;;;8.90;99.90;;;;;;5026415;28;20386;-77
2023/04/11 11:08:09;;;;;;;8.32;1.23;;;9.20;99.90;;;;;;5025545;28;20037;-77
2023/04/11 11:10:43;;;;;;;4.00;0.95;;;8.90;99.90;;;;;;5042897;28;20052;-77
2023/04/11 11:13:09;;;;;;;7.25;1.02;;;8.90;99.90;;;;;;5042635;28;20133;-78
2023/04/11 11:15:40;;;;;;;7.00;1.33;;;9.00;99.90;;;;;;5026718;28;20045;-77
2023/04/11 11:18:07;;;;;;;9.02;1.80;;;9.00;99.90;;;;;;5026022;28;20085;-77
2023/04/11 11:20:34;;;;;;;12.45;1.52;;;9.30;99.90;;;;;;5025515;28;20037;-77
2023/04/11 11:23:02;;;;;;;7.88;1.40;;;9.60;99.90;;;;;;5042666;28;20488;-77
2023/04/11 11:25:28;;;;;;;13.20;1.75;;;10.00;99.90;;;;;;5041886;28;20045;-77
2023/04/11 11:27:59;;;;;;;8.23;1.20;;;10.40;99.90;;;;;;5042749;28;20098;-77
2023/04/11 11:30:24;;;;;;;11.57;1.55;;;10.80;99.90;;;;;;5042578;28;20427;-79
2023/04/11 11:32:50;;;;;;;12.48;1.95;;;11.20;99.90;;;;;;5042417;28;20037;-77
2023/04/11 11:35:16;;;;;;;9.20;1.30;;;11.40;99.90;;;;;;5041856;28;20045;-78
2023/04/11 11:37:42;;;;;;;8.82;1.55;;;11.40;99.90;;;;;;5025556;28;20401;-77
2023/04/11 11:40:12;;;;;;;8.00;1.88;;;11.20;99.90;;;;;;5025287;28;20052;-78
2023/04/11 11:42:41;;;;;;;8.95;1.40;;;11.00;99.90;;;;;;5041692;28;20056;-78
2023/04/11 11:45:17;;;;;;;7.28;1.20;;;10.70;99.90;;;;;;5025567;28;20045;-77
2023/04/11 11:47:44;;;;;;;9.55;1.48;;;10.40;99.90;;;;;;5042351;28;20404;-78
2023/04/11 11:50:10;;;;;;;10.00;1.10;;;10.40;99.90;;;;;;5043904;28;20041;-78
2023/04/11 11:52:40;;;;;;;7.60;1.48;;;10.30;99.90;;;;;;5042302;28;20354;-78
2023/04/11 11:55:18;;;;;;;9.35;1.63;;;10.40;99.90;;;;;;5043251;28;20488;-78
2023/04/11 11:57:46;;;;;;;9.40;1.00;;;10.60;99.90;;;;;;5044050;28;20064;-77
2023/04/11 12:00:12;;;;;;;7.88;0.77;;;11.00;99.90;;;;;;5043038;28;20041;-78
2023/04/11 12:02:41;;;;;;;9.82;1.92;;;11.10;99.90;;;;;;5043496;28;20040;-77
2023/04/11 12:05:10;;;;;;;6.97;0.90;;;11.30;99.90;;;;;;5041759;28;20092;-77
2023/04/11 12:07:37;;;;;;;10.95;1.80;;;11.50;99.90;;;;;;5044042;28;20048;-80
2023/04/11 12:10:08;;;;;;;5.25;1.27;;;11.50;99.90;;;;;;5042889;28;20412;-79
2023/04/11 12:12:41;;;;;;;5.18;0.90;;;11.30;99.90;;;;;;5044596;28;20404;-82
2023/04/11 12:15:12;;;;;;;9.55;1.00;;;11.60;99.90;;;;;;5042158;28;20037;-82
2023/04/11 12:17:38;;;;;;;6.20;1.30;;;10.30;99.90;;;;;;5041059;28;20053;-82
2023/04/11 12:20:06;;;;;;;6.40;0.90;;;10.00;99.90;;;;;;5041333;28;20385;-82
2023/04/11 12:22:31;;;;;;;9.25;1.75;;;9.90;99.90;;;;;;5025228;28;20080;-82
2023/04/11 12:25:08;;;;;;;6.15;1.23;;;10.00;99.90;;;;;;5042918;28;20617;-82
2023/04/11 12:27:36;;;;;;;14.77;1.67;;;10.30;99.90;;;;;;5041572;28;20049;-81
2023/04/11 12:30:03;;;;;;;13.10;1.67;;;10.50;99.90;;;;;;5041032;28;20052;-82
2023/04/11 12:32:29;;;;;;;8.02;1.30;;;10.70;99.90;;;;;;5045452;28;20036;-81
2023/04/11 12:34:55;;;;;;;8.25;1.45;;;10.70;99.90;;;;;;5045253;28;20041;-81
2023/04/11 12:37:21;;;;;;;6.38;0.85;;;11.00;99.90;;;;;;5045023;28;20037;-81
2023/04/11 12:39:47;;;;;;;7.68;1.05;;;11.90;99.90;;;;;;5046747;28;20694;-80
2023/04/11 12:42:13;;;;;;;3.47;0.60;;;11.20;99.90;;;;;;5045911;28;20049;-81
2023/04/11 12:44:39;;;;;;;5.25;0.88;;;10.90;99.90;;;;;;5046879;28;20057;-81
2023/04/11 12:47:05;;;;;;;7.85;1.05;;;10.70;99.90;;;;;;5028620;28;20148;-81
2023/04/11 12:49:31;;;;;;;7.43;1.13;;;10.60;99.90;;;;;;5028991;28;20480;-81
2023/04/11 12:51:56;;;;;;;11.85;2.10;;;10.50;99.90;;;;;;5046112;28;20498;-81
2023/04/11 12:54:22;;;;;;;8.82;1.45;;;10.40;99.90;;;;;;5046718;28;20048;-82